Time;durP1;ratioP1;P1;durP2;ratioP2;P2;SDS_P1;SDS_P2;PMS_P1;PMS_P2;Temp;Humidity;BMP_temperature;BMP_pressure;BME280_temperature;BME280_humidity;BME280_pressure;Samples;Min_cycle;Max_cycle;Signal;HPM_P1;HPM_P2
2021/04/27 00:01:46;;;;;;;27.80;20.50;;;;;;;13.14;77.83;99951.72;4993659;28;20066;-68
2021/04/27 00:04:12;;;;;;;22.90;20.50;;;;;;;13.07;78.37;99946.06;4993637;28;20050;-68
2021/04/27 00:06:39;;;;;;;23.55;21.15;;;;;;;13.12;78.23;99948.38;4993556;28;20046;-68
2021/04/27 00:09:08;;;;;;;22.60;20.30;;;;;;;13.19;78.04;99946.19;4993717;28;20042;-67
2021/04/27 00:11:36;;;;;;;21.88;18.58;;;;;;;13.30;78.23;99941.94;4993245;28;20062;-67
2021/04/27 00:14:04;;;;;;;22.73;20.27;;;;;;;13.47;77.37;99934.75;4993791;28;20066;-68
2021/04/27 00:16:31;;;;;;;20.95;18.88;;;;;;;13.41;77.19;99938.63;4993533;28;20047;-68
2021/04/27 00:18:57;;;;;;;24.00;18.90;;;;;;;13.29;77.67;99928.97;4993314;28;20122;-68
2021/04/27 00:21:24;;;;;;;23.20;19.98;;;;;;;13.31;78.11;99927.09;4993098;28;20061;-68
2021/04/27 00:23:51;;;;;;;27.55;19.98;;;;;;;13.40;77.10;99925.66;4993602;28;20085;-68
2021/04/27 00:26:17;;;;;;;22.13;19.48;;;;;;;13.43;77.34;99921.06;4991615;28;20046;-67
2021/04/27 00:28:43;;;;;;;22.58;19.02;;;;;;;13.38;77.52;99922.31;4987739;28;20129;-67
2021/04/27 00:31:10;;;;;;;22.05;19.92;;;;;;;13.28;78.48;99916.84;4986597;28;20050;-68
2021/04/27 00:33:37;;;;;;;20.77;18.55;;;;;;;13.21;78.84;99910.28;4987151;28;20516;-68
2021/04/27 00:36:04;;;;;;;23.77;19.33;;;;;;;13.25;79.05;99910.00;4987380;28;20050;-68
2021/04/27 00:38:32;;;;;;;20.67;18.55;;;;;;;13.30;78.64;99914.94;4987680;28;20544;-68
2021/04/27 00:41:00;;;;;;;23.23;19.27;;;;;;;13.26;78.96;99914.31;4987087;28;20053;-69
2021/04/27 00:43:27;;;;;;;20.80;18.80;;;;;;;13.23;78.63;99911.06;4987175;28;20074;-67
2021/04/27 00:45:53;;;;;;;18.55;16.75;;;;;;;13.09;79.43;99907.53;4987677;28;20100;-67
2021/04/27 00:48:19;;;;;;;21.10;18.15;;;;;;;12.97;80.39;99904.88;4988658;28;20121;-67
2021/04/27 00:50:47;;;;;;;21.15;18.50;;;;;;;12.98;80.03;99899.53;4991320;28;20125;-67
2021/04/27 00:53:14;;;;;;;19.15;15.75;;;;;;;12.91;80.34;99897.44;4989378;28;20133;-67
2021/04/27 00:55:41;;;;;;;17.90;16.00;;;;;;;12.95;80.66;99898.94;4991355;28;20080;-68
2021/04/27 00:58:07;;;;;;;18.80;16.92;;;;;;;12.88;81.05;99888.00;4990340;28;20125;-67
2021/04/27 01:00:37;;;;;;;18.60;16.65;;;;;;;12.95;81.08;99883.22;4991098;28;20062;-68
2021/04/27 01:03:04;;;;;;;18.58;16.58;;;;;;;13.02;80.44;99889.72;4989461;28;20088;-69
2021/04/27 01:05:33;;;;;;;19.45;14.85;;;;;;;12.79;81.04;99884.22;4990985;28;20481;-68
2021/04/27 01:08:30;;;;;;;20.45;15.65;;;;;;;12.94;81.65;99881.53;4990392;28;20035;-68
2021/04/27 01:11:33;;;;;;;16.33;14.55;;;;;;;12.98;81.08;99877.78;4990827;28;20042;-68
2021/04/27 01:14:08;;;;;;;16.38;14.38;;;;;;;12.80;80.92;99874.59;4988544;28;20387;-68
2021/04/27 01:16:42;;;;;;;15.50;14.00;;;;;;;12.84;81.06;99871.69;4987778;28;20493;-68
2021/04/27 01:19:17;;;;;;;14.73;13.20;;;;;;;13.01;81.04;99873.19;4993462;28;20673;-68
2021/04/27 01:21:47;;;;;;;15.32;12.73;;;;;;;12.90;81.03;99870.44;4989010;28;20073;-69
2021/04/27 01:24:24;;;;;;;15.65;14.07;;;;;;;12.76;81.60;99870.50;5005443;28;20104;-68
2021/04/27 01:26:53;;;;;;;17.65;13.90;;;;;;;12.69;81.83;99869.22;4991711;28;20039;-69
2021/04/27 01:29:22;;;;;;;16.70;14.85;;;;;;;12.57;82.47;99866.47;4991305;28;20561;-68
2021/04/27 01:31:51;;;;;;;17.15;15.30;;;;;;;12.64;81.81;99863.47;4989742;28;20089;-69
2021/04/27 01:34:21;;;;;;;16.95;13.98;;;;;;;12.63;82.74;99862.63;5004933;28;20074;-69
2021/04/27 01:36:50;;;;;;;14.80;13.40;;;;;;;12.66;82.27;99853.72;5004824;28;20084;-69
2021/04/27 01:39:20;;;;;;;16.08;13.20;;;;;;;12.61;82.37;99855.78;4986033;28;20049;-69
2021/04/27 01:41:47;;;;;;;16.90;15.20;;;;;;;12.68;82.50;99859.72;4987803;28;20050;-69
2021/04/27 01:44:14;;;;;;;20.85;15.07;;;;;;;12.70;81.59;99863.06;4989920;28;20648;-69
2021/04/27 01:46:43;;;;;;;24.50;14.75;;;;;;;12.54;82.00;99857.97;4988924;28;20460;-69
2021/04/27 01:49:12;;;;;;;16.55;14.55;;;;;;;12.62;82.54;99852.25;4988815;28;20038;-68
2021/04/27 01:51:59;;;;;;;16.02;14.30;;;;;;;12.69;82.27;99848.31;4990520;28;20038;-69
2021/04/27 01:54:39;;;;;;;15.73;13.82;;;;;;;12.74;81.66;99851.47;5003164;28;20378;-69
2021/04/27 01:57:06;;;;;;;18.88;14.30;;;;;;;12.65;81.80;99852.88;4988659;28;20087;-69
2021/04/27 01:59:32;;;;;;;15.48;13.95;;;;;;;12.67;82.06;99847.56;5004563;28;20041;-71
2021/04/27 02:01:59;;;;;;;15.27;13.77;;;;;;;12.63;81.57;99846.09;4990082;28;20042;-71
2021/04/27 02:04:28;;;;;;;15.40;13.90;;;;;;;12.75;81.33;99840.91;4988946;28;20038;-68
2021/04/27 02:07:16;;;;;;;21.50;14.15;;;;;;;12.96;79.67;99849.09;5004275;28;20439;-68
2021/04/27 02:09:43;;;;;;;17.83;13.93;;;;;;;12.83;80.75;99843.00;4988459;28;20077;-68
2021/04/27 02:12:27;;;;;;;17.40;14.43;;;;;;;12.72;80.85;99841.06;4987692;28;20327;-68
2021/04/27 02:14:55;;;;;;;16.85;14.82;;;;;;;12.80;80.79;99845.81;4988549;28;20045;-68
2021/04/27 02:18:01;;;;;;;16.15;14.02;;;;;;;12.92;80.42;99847.63;4981836;28;20057;-67
2021/04/27 02:20:29;;;;;;;16.35;14.73;;;;;;;12.87;80.45;99841.88;5003434;28;20049;-68
2021/04/27 02:23:09;;;;;;;15.85;13.57;;;;;;;12.87;80.48;99835.78;4990635;28;20050;-68
2021/04/27 02:25:55;;;;;;;17.15;14.85;;;;;;;12.89;80.01;99840.00;4989518;28;20057;-68
2021/04/27 02:28:25;;;;;;;17.42;15.77;;;;;;;12.71;80.94;99833.34;4988145;28;20048;-68
2021/04/27 02:30:53;;;;;;;23.77;13.80;;;;;;;12.82;80.34;99830.84;4989430;28;21732;-68
2021/04/27 02:33:20;;;;;;;16.98;14.45;;;;;;;12.84;80.40;99824.59;4988937;28;20105;-68
2021/04/27 02:35:49;;;;;;;21.17;16.75;;;;;;;12.79;80.75;99825.84;4989339;28;20042;-67
2021/04/27 02:38:27;;;;;;;18.20;15.40;;;;;;;12.68;80.45;99816.09;5003965;28;20042;-67
2021/04/27 02:40:56;;;;;;;18.10;16.10;;;;;;;12.79;80.31;99815.38;4988054;28;20049;-67
2021/04/27 02:43:24;;;;;;;16.77;15.02;;;;;;;12.75;80.36;99817.34;5003903;28;20046;-67
2021/04/27 02:45:52;;;;;;;16.10;14.52;;;;;;;12.71;80.38;99820.28;4986831;28;20400;-67
2021/04/27 02:48:25;;;;;;;18.40;15.38;;;;;;;12.56;81.05;99819.47;4989437;28;20042;-67
2021/04/27 02:51:00;;;;;;;15.13;13.52;;;;;;;12.53;81.25;99822.31;4987084;28;20426;-67
2021/04/27 02:53:35;;;;;;;18.25;16.15;;;;;;;12.83;80.10;99819.44;5003899;28;20061;-67
2021/04/27 02:56:02;;;;;;;16.20;14.52;;;;;;;12.69;80.41;99811.69;5003086;28;20056;-67
2021/04/27 02:58:32;;;;;;;16.48;14.35;;;;;;;12.67;80.47;99816.16;5003491;28;20046;-67
2021/04/27 03:01:00;;;;;;;18.45;14.38;;;;;;;12.60;80.55;99813.13;4987042;28;20045;-68
2021/04/27 03:03:26;;;;;;;15.38;13.75;;;;;;;12.61;81.03;99814.78;5004130;28;20456;-70
2021/04/27 03:05:53;;;;;;;18.02;14.55;;;;;;;12.66;79.99;99804.88;5001753;28;20041;-68
2021/04/27 03:08:20;;;;;;;15.85;14.18;;;;;;;12.66;80.50;99812.72;4989354;28;20058;-68
2021/04/27 03:10:47;;;;;;;17.63;14.55;;;;;;;12.65;80.06;99808.44;4991910;28;20097;-73
2021/04/27 03:13:13;;;;;;;16.05;14.40;;;;;;;12.24;81.88;99801.47;5004072;28;20077;-71
2021/04/27 03:16:00;;;;;;;17.73;15.52;;;;;;;12.41;81.99;99800.44;4975331;28;20062;-71
2021/04/27 03:18:26;;;;;;;16.17;14.57;;;;;;;12.54;81.51;99801.28;4990939;28;20500;-71
2021/04/27 03:20:54;;;;;;;16.38;14.75;;;;;;;12.51;80.86;99800.66;4986834;28;20116;-71
2021/04/27 03:23:26;;;;;;;18.42;15.32;;;;;;;12.50;81.04;99791.97;5002785;28;20559;-71
2021/04/27 03:25:53;;;;;;;17.80;15.88;;;;;;;12.49;81.21;99802.53;4988298;28;20054;-70
2021/04/27 03:28:32;;;;;;;17.48;15.63;;;;;;;12.45;80.52;99799.25;4987830;28;20042;-71
2021/04/27 03:31:03;;;;;;;17.60;15.82;;;;;;;12.38;81.20;99790.16;4987713;28;20053;-70
2021/04/27 03:33:30;;;;;;;16.25;14.57;;;;;;;12.42;81.22;99788.19;4984545;28;20108;-72
2021/04/27 03:35:57;;;;;;;16.55;14.85;;;;;;;12.59;80.33;99794.00;4986864;28;20525;-71
2021/04/27 03:38:25;;;;;;;17.40;15.25;;;;;;;12.65;79.49;99789.28;4986732;28;20050;-71
2021/04/27 03:40:52;;;;;;;17.58;15.15;;;;;;;12.65;79.57;99787.50;4987750;28;20401;-71
2021/04/27 03:43:25;;;;;;;17.40;15.77;;;;;;;12.77;79.83;99783.25;5002755;28;20387;-72
2021/04/27 03:45:52;;;;;;;15.48;13.98;;;;;;;12.61;79.53;99791.25;5002648;28;20049;-72
2021/04/27 03:48:20;;;;;;;19.65;13.80;;;;;;;12.51;79.85;99785.78;4988077;28;20112;-71
2021/04/27 03:50:55;;;;;;;16.35;14.70;;;;;;;12.61;79.98;99788.66;5001224;28;20046;-71
2021/04/27 03:53:40;;;;;;;15.40;13.82;;;;;;;12.46;80.20;99785.25;4988515;28;20097;-71
2021/04/27 03:56:13;;;;;;;16.60;14.98;;;;;;;12.60;79.63;99779.13;5002663;28;20104;-72
2021/04/27 03:58:40;;;;;;;15.75;14.15;;;;;;;12.59;79.78;99780.91;4987512;28;20054;-72
2021/04/27 04:01:10;;;;;;;16.70;12.93;;;;;;;12.54;79.68;99783.00;4987130;28;20117;-72
2021/04/27 04:03:41;;;;;;;16.27;14.50;;;;;;;12.57;79.80;99782.81;4987805;28;20046;-71
2021/04/27 04:06:10;;;;;;;16.90;13.40;;;;;;;12.45;80.12;99775.75;5001970;28;20157;-67
2021/04/27 04:09:09;;;;;;;15.02;13.52;;;;;;;12.46;79.96;99780.03;4983427;28;20050;-69
2021/04/27 04:11:59;;;;;;;14.45;13.00;;;;;;;12.34;79.48;99778.22;4988228;28;20041;-69
2021/04/27 04:14:25;;;;;;;15.77;12.98;;;;;;;12.44;79.63;99784.53;4983714;28;20525;-69
2021/04/27 04:17:18;;;;;;;14.35;12.88;;;;;;;12.30;80.27;99774.13;4986187;28;20136;-68
2021/04/27 04:19:47;;;;;;;13.38;11.98;;;;;;;12.40;79.11;99772.59;5002291;28;20073;-69
2021/04/27 04:22:14;;;;;;;13.18;11.73;;;;;;;12.32;79.54;99769.66;4985577;28;20038;-69
2021/04/27 04:24:55;;;;;;;14.50;12.98;;;;;;;12.33;79.54;99766.91;4986933;28;20125;-69
2021/04/27 04:27:22;;;;;;;15.23;13.65;;;;;;;12.33;80.75;99773.94;4987627;28;20046;-69
2021/04/27 04:30:17;;;;;;;14.32;12.93;;;;;;;12.33;81.32;99771.31;4985204;28;20054;-69
2021/04/27 04:32:44;;;;;;;17.65;13.57;;;;;;;12.36;80.05;99776.34;4987180;28;20112;-68
2021/04/27 04:35:30;;;;;;;15.27;13.68;;;;;;;12.32;80.13;99774.88;4987584;28;20166;-69
2021/04/27 04:38:31;;;;;;;16.10;14.50;;;;;;;12.34;80.76;99778.22;4986523;28;20059;-69
2021/04/27 04:41:18;;;;;;;15.90;11.98;;;;;;;12.32;79.65;99770.47;4977005;28;20042;-69
2021/04/27 04:44:03;;;;;;;;;;;;;;;12.38;80.13;99774.47;4988039;28;20193;-71
2021/04/27 04:46:53;;;;;;;16.55;12.93;;;;;;;12.35;79.31;99772.03;4991267;28;19937;-70
2021/04/27 04:49:26;;;;;;;15.23;13.77;;;;;;;12.33;79.36;99774.75;4992839;28;20038;-69
2021/04/27 04:52:16;;;;;;;15.30;13.82;;;;;;;12.38;79.04;99779.69;4988011;28;20101;-69
2021/04/27 04:55:03;;;;;;;14.52;13.13;;;;;;;12.35;79.40;99779.06;4993052;28;20049;-68
2021/04/27 04:57:49;;;;;;;16.10;13.55;;;;;;;12.29;78.72;99785.50;4993125;28;20054;-67
2021/04/27 05:00:20;;;;;;;15.43;13.15;;;;;;;12.30;78.90;99785.44;4992445;28;20121;-67
2021/04/27 05:03:05;;;;;;;15.07;12.30;;;;;;;12.29;79.43;99785.50;4988810;28;20053;-69
2021/04/27 05:05:54;;;;;;;14.40;12.23;;;;;;;12.19;79.34;99784.41;4988569;28;20058;-68
2021/04/27 05:08:58;;;;;;;15.80;12.73;;;;;;;11.94;79.82;99788.59;4986515;28;20038;-70
2021/04/27 05:11:58;;;;;;;16.83;13.95;;;;;;;12.14;79.55;99786.50;4983682;28;20046;-71
2021/04/27 05:14:47;;;;;;;12.25;11.05;;;;;;;12.14;79.77;99791.72;4983056;28;20057;-68
2021/04/27 05:17:15;;;;;;;15.10;13.60;;;;;;;12.07;80.00;99789.50;4991290;28;20042;-69
2021/04/27 05:19:42;;;;;;;14.23;12.75;;;;;;;12.22;80.36;99790.31;4992050;28;20445;-69
2021/04/27 05:22:09;;;;;;;18.88;12.20;;;;;;;12.17;80.11;99794.16;4991922;28;20038;-70
2021/04/27 05:24:38;;;;;;;18.88;12.77;;;;;;;12.15;79.68;99793.41;4989732;28;20044;-69
2021/04/27 05:27:16;;;;;;;14.30;11.25;;;;;;;12.21;79.75;99791.25;4989034;28;20493;-69
2021/04/27 05:29:42;;;;;;;14.77;13.07;;;;;;;12.14;79.69;99794.31;4989538;28;20046;-70
2021/04/27 05:32:09;;;;;;;22.80;13.55;;;;;;;12.14;80.34;99797.78;4987690;28;20038;-68
2021/04/27 05:34:36;;;;;;;13.13;11.82;;;;;;;12.12;81.23;99793.59;4991204;28;20050;-66
2021/04/27 05:37:03;;;;;;;13.52;12.13;;;;;;;12.06;79.53;99800.88;4989829;28;20049;-68
2021/04/27 05:39:30;;;;;;;14.55;13.10;;;;;;;12.19;79.34;99794.88;4993469;28;20433;-68
2021/04/27 05:41:57;;;;;;;19.88;15.40;;;;;;;12.02;79.24;99788.09;4989412;28;20133;-70
2021/04/27 05:44:23;;;;;;;14.60;13.10;;;;;;;12.23;78.88;99791.97;4987559;28;20046;-70
2021/04/27 05:46:50;;;;;;;16.10;14.27;;;;;;;12.27;79.20;99796.06;4985009;28;20066;-69
2021/04/27 05:49:17;;;;;;;18.48;13.65;;;;;;;12.35;78.29;99786.88;4988221;28;20046;-70
2021/04/27 05:51:43;;;;;;;14.77;13.23;;;;;;;12.19;79.63;99789.66;4988086;28;20046;-71
2021/04/27 05:54:09;;;;;;;13.40;12.15;;;;;;;12.05;79.44;99783.53;4993667;28;20081;-70
2021/04/27 05:56:36;;;;;;;13.77;12.43;;;;;;;12.05;79.59;99791.38;4994053;28;20122;-70
2021/04/27 05:59:04;;;;;;;14.90;10.95;;;;;;;12.00;79.12;99784.78;4993651;28;20038;-70
2021/04/27 06:01:31;;;;;;;13.77;12.43;;;;;;;12.15;78.72;99793.41;4994526;28;20093;-69
2021/04/27 06:03:57;;;;;;;12.15;10.35;;;;;;;12.13;78.30;99792.66;4994985;28;20117;-69
2021/04/27 06:06:24;;;;;;;13.68;11.55;;;;;;;12.22;78.31;99790.31;4995297;28;20050;-69
2021/04/27 06:08:50;;;;;;;13.32;11.68;;;;;;;12.17;77.57;99786.31;4995082;28;20048;-69
2021/04/27 06:11:18;;;;;;;12.45;11.25;;;;;;;12.12;78.50;99790.97;4994944;28;20038;-71
2021/04/27 06:13:44;;;;;;;12.25;9.88;;;;;;;12.11;77.57;99790.16;4994693;28;20046;-71
2021/04/27 06:16:10;;;;;;;13.68;11.43;;;;;;;12.07;77.66;99784.28;4991541;28;20428;-69
2021/04/27 06:18:37;;;;;;;14.77;13.20;;;;;;;12.05;77.50;99783.53;4993614;28;20104;-69
2021/04/27 06:21:05;;;;;;;16.58;14.85;;;;;;;11.95;78.33;99787.66;4989558;28;20137;-69
2021/04/27 06:23:31;;;;;;;16.42;14.15;;;;;;;11.89;78.82;99788.06;4994467;28;20047;-69
2021/04/27 06:25:58;;;;;;;14.68;12.38;;;;;;;12.06;77.39;99789.59;4987304;28;20129;-67
2021/04/27 06:41:19;;;;;;;11.10;10.02;;;;;;;12.10;77.94;99790.25;5071575;27;20424;-70
2021/04/27 06:43:46;;;;;;;15.32;10.77;;;;;;;11.97;78.18;99788.41;5068858;28;20446;-63
2021/04/27 06:46:12;;;;;;;16.95;10.82;;;;;;;12.25;77.87;99794.47;5068625;28;20116;-64
2021/04/27 06:48:39;;;;;;;16.17;12.20;;;;;;;12.20;77.30;99793.97;5068340;28;20402;-63
2021/04/27 06:51:09;;;;;;;13.75;11.18;;;;;;;12.12;77.08;99797.03;5069131;28;20048;-64
2021/04/27 06:53:36;;;;;;;14.50;13.00;;;;;;;12.16;77.78;99795.09;5050570;28;20067;-66
2021/04/27 06:56:03;;;;;;;12.38;10.38;;;;;;;12.10;77.69;99796.31;5061977;28;20039;-63
2021/04/27 06:58:31;;;;;;;14.90;12.80;;;;;;;12.02;78.02;99795.94;5063404;28;20409;-67
2021/04/27 07:00:57;;;;;;;13.93;9.50;;;;;;;12.10;78.17;99798.94;5068328;28;20047;-68
2021/04/27 07:03:23;;;;;;;11.40;10.30;;;;;;;12.16;77.70;99795.91;5068412;28;20049;-69
2021/04/27 07:05:50;;;;;;;11.32;9.15;;;;;;;12.26;77.55;99799.63;5068342;28;20040;-69
2021/04/27 07:08:16;;;;;;;8.98;8.07;;;;;;;12.03;77.40;99800.22;5068657;28;20052;-68
2021/04/27 07:10:43;;;;;;;12.85;9.40;;;;;;;12.14;77.22;99804.78;5068687;28;20064;-67
2021/04/27 07:13:09;;;;;;;20.05;12.73;;;;;;;12.13;78.05;99797.88;5067973;28;20098;-67
2021/04/27 07:15:36;;;;;;;13.25;11.95;;;;;;;12.00;78.15;99803.06;5068480;28;20502;-68
2021/04/27 07:18:03;;;;;;;14.38;11.93;;;;;;;12.06;78.74;99802.66;5068344;28;20045;-67
2021/04/27 07:20:29;;;;;;;11.98;10.80;;;;;;;12.16;78.49;99801.16;5068600;28;20091;-67
2021/04/27 07:22:56;;;;;;;11.45;10.25;;;;;;;12.25;77.75;99794.47;5067837;28;20454;-68
2021/04/27 07:25:23;;;;;;;17.20;11.20;;;;;;;12.23;78.48;99806.81;5068049;28;20120;-67
2021/04/27 07:27:49;;;;;;;12.75;10.32;;;;;;;12.15;78.55;99798.66;5067936;28;20037;-66
2021/04/27 07:30:17;;;;;;;12.05;10.82;;;;;;;12.31;79.07;99801.94;5068437;28;20045;-68
2021/04/27 07:32:44;;;;;;;11.95;10.75;;;;;;;12.32;79.25;99801.00;5065479;28;20057;-67
2021/04/27 07:35:11;;;;;;;13.43;10.98;;;;;;;12.10;79.80;99796.31;5064154;28;20036;-67
2021/04/27 07:37:38;;;;;;;15.68;12.13;;;;;;;12.28;78.13;99804.75;5067138;28;20062;-68
2021/04/27 07:40:07;;;;;;;15.45;9.88;;;;;;;12.40;77.25;99796.09;5073577;28;20048;-67
2021/04/27 07:42:35;;;;;;;10.63;9.43;;;;;;;12.39;76.98;99799.66;5060783;28;20040;-66
2021/04/27 07:45:02;;;;;;;12.30;9.93;;;;;;;12.31;77.64;99801.94;5062045;28;20123;-70
2021/04/27 07:47:28;;;;;;;19.13;12.50;;;;;;;12.29;79.05;99799.41;5065188;28;20051;-73
2021/04/27 07:49:55;;;;;;;18.23;16.30;;;;;;;12.17;79.23;99804.59;5060427;28;20386;-73
2021/04/27 07:52:23;;;;;;;19.30;15.07;;;;;;;12.18;79.25;99798.44;5060035;28;20090;-70
2021/04/27 07:54:50;;;;;;;14.10;12.55;;;;;;;12.21;78.39;99803.47;5061157;28;20037;-71
2021/04/27 07:57:16;;;;;;;13.95;12.50;;;;;;;12.34;78.58;99806.97;5061925;28;20040;-72
2021/04/27 07:59:42;;;;;;;15.63;11.23;;;;;;;12.40;78.38;99808.34;5060752;28;20040;-72
2021/04/27 08:02:10;;;;;;;13.52;10.98;;;;;;;12.28;78.51;99813.41;5062080;28;20044;-70
2021/04/27 08:04:36;;;;;;;11.75;10.55;;;;;;;12.30;78.37;99808.97;5058826;28;20123;-71
2021/04/27 08:07:03;;;;;;;16.75;9.77;;;;;;;12.28;78.63;99812.59;5060017;28;20049;-71
2021/04/27 08:09:29;;;;;;;11.13;10.02;;;;;;;12.17;78.76;99802.81;5060871;28;20052;-72
2021/04/27 08:11:56;;;;;;;14.00;11.85;;;;;;;12.14;79.22;99813.44;5060608;28;20047;-71
2021/04/27 08:14:23;;;;;;;11.77;10.57;;;;;;;12.21;79.22;99811.31;5060948;28;20127;-70
2021/04/27 08:16:49;;;;;;;17.23;12.45;;;;;;;12.24;79.80;99811.94;5059156;28;20041;-70
2021/04/27 08:19:16;;;;;;;15.80;14.10;;;;;;;12.30;78.99;99810.69;5062102;28;20044;-69
2021/04/27 08:21:43;;;;;;;14.77;12.98;;;;;;;12.20;79.07;99809.63;5057085;28;20044;-70
2021/04/27 08:24:10;;;;;;;15.00;13.60;;;;;;;12.40;78.79;99814.41;5062211;28;20041;-71
2021/04/27 08:26:57;;;;;;;14.07;11.93;;;;;;;12.37;78.98;99809.41;5062552;28;20037;-70
2021/04/27 08:29:24;;;;;;;14.77;12.35;;;;;;;12.41;78.45;99810.88;5060825;28;20118;-70
2021/04/27 08:31:56;;;;;;;12.02;10.75;;;;;;;12.38;78.78;99818.91;5062889;28;20045;-70
2021/04/27 08:34:24;;;;;;;13.20;10.52;;;;;;;12.41;78.28;99823.94;5061101;28;20106;-70
2021/04/27 08:36:50;;;;;;;12.38;11.10;;;;;;;12.43;78.58;99816.84;5058537;28;20045;-70
2021/04/27 08:39:17;;;;;;;15.32;12.25;;;;;;;12.40;78.64;99821.41;5063524;28;20044;-71
2021/04/27 08:41:44;;;;;;;14.07;11.10;;;;;;;12.38;78.83;99821.53;5061979;28;20051;-72
2021/04/27 08:44:11;;;;;;;17.48;12.38;;;;;;;12.31;79.80;99825.47;5065834;28;20037;-73
2021/04/27 08:46:38;;;;;;;17.42;12.02;;;;;;;12.33;80.30;99823.59;5063284;28;20379;-69
2021/04/27 08:49:05;;;;;;;11.48;10.38;;;;;;;12.29;80.51;99822.94;5057024;28;20040;-69
2021/04/27 08:51:31;;;;;;;13.45;10.23;;;;;;;12.37;79.96;99826.84;5063654;28;20041;-69
2021/04/27 08:54:15;;;;;;;12.15;9.80;;;;;;;12.29;80.71;99828.16;5060458;28;20480;-68
2021/04/27 08:56:42;;;;;;;11.95;10.00;;;;;;;12.30;80.56;99829.00;5062027;28;20044;-70
2021/04/27 08:59:08;;;;;;;12.95;11.65;;;;;;;12.43;79.89;99829.91;5062554;28;20068;-70
2021/04/27 09:01:35;;;;;;;11.55;9.98;;;;;;;12.51;79.47;99830.22;5061868;28;20044;-68
2021/04/27 09:04:02;;;;;;;19.90;11.75;;;;;;;12.27;80.42;99830.03;5062107;28;20063;-69
2021/04/27 09:06:29;;;;;;;12.57;11.25;;;;;;;12.45;80.52;99832.41;5065958;28;20048;-69
2021/04/27 09:08:56;;;;;;;17.52;11.52;;;;;;;12.51;80.62;99832.84;5062022;28;20094;-70
2021/04/27 09:11:34;;;;;;;13.05;11.00;;;;;;;12.58;80.28;99842.00;5062483;28;20101;-70
2021/04/27 09:14:17;;;;;;;15.85;10.48;;;;;;;12.70;79.39;99829.06;5060114;28;20119;-70
2021/04/27 09:16:55;;;;;;;12.60;11.30;;;;;;;12.70;80.92;99832.50;5058236;28;20582;-69
2021/04/27 09:19:53;;;;;;;14.77;10.82;;;;;;;12.72;80.28;99832.41;5061458;28;20047;-69
2021/04/27 09:22:34;;;;;;;15.27;9.85;;;;;;;12.49;79.67;99831.28;5059579;28;20367;-68
2021/04/27 09:25:23;;;;;;;12.18;11.00;;;;;;;12.44;80.31;99828.97;5056688;28;20133;-71
2021/04/27 09:28:32;;;;;;;16.08;11.23;;;;;;;12.58;80.12;99828.91;5059081;28;20048;-73
2021/04/27 09:31:38;;;;;;;12.45;10.43;;;;;;;12.65;81.05;99831.13;5057841;28;20049;-68
2021/04/27 09:34:31;;;;;;;15.75;12.18;;;;;;;12.32;80.74;99832.38;5059066;28;20074;-68
2021/04/27 09:37:10;;;;;;;11.95;10.35;;;;;;;12.45;80.79;99828.03;5057584;28;20041;-69
2021/04/27 09:39:44;;;;;;;12.23;11.02;;;;;;;12.58;80.53;99822.84;5059126;28;20111;-68
2021/04/27 09:42:15;;;;;;;14.73;13.38;;;;;;;12.59;80.19;99824.53;5059909;28;20377;-75
2021/04/27 09:44:45;;;;;;;14.23;12.82;;;;;;;12.62;80.61;99826.09;5059711;28;20449;-75
2021/04/27 09:47:17;;;;;;;15.93;14.40;;;;;;;12.65;80.00;99820.69;5059668;28;20067;-73
2021/04/27 09:50:11;;;;;;;14.53;13.07;;;;;;;12.57;80.05;99819.41;5059747;28;20422;-71
2021/04/27 09:52:45;;;;;;;18.80;13.85;;;;;;;12.61;81.20;99821.81;5067948;28;20079;-72
2021/04/27 09:55:20;;;;;;;13.48;11.90;;;;;;;12.63;80.95;99823.41;5062948;28;20060;-72
2021/04/27 09:57:54;;;;;;;18.90;16.38;;;;;;;12.69;80.15;99819.53;5058591;28;20048;-74
2021/04/27 10:00:27;;;;;;;;;;;;;;;12.76;79.32;99812.97;5060526;28;20040;-74
2021/04/27 10:02:59;;;;;;;12.55;11.10;;;;;;;12.83;79.58;99820.28;5060557;28;20422;-75
2021/04/27 10:05:25;;;;;;;14.65;12.13;;;;;;;12.78;78.85;99813.69;5059981;28;20068;-74
2021/04/27 10:07:54;;;;;;;15.05;12.15;;;;;;;12.79;79.46;99807.53;5068588;28;20576;-75
2021/04/27 10:10:21;;;;;;;13.50;10.77;;;;;;;12.77;79.11;99806.78;5064189;28;20391;-75
2021/04/27 10:12:49;;;;;;;14.60;11.70;;;;;;;12.74;79.60;99801.78;5059370;28;20041;-69
2021/04/27 10:15:16;;;;;;;12.68;11.13;;;;;;;12.72;79.22;99803.63;5061551;28;20040;-70
2021/04/27 10:17:43;;;;;;;12.75;11.40;;;;;;;12.89;79.83;99795.53;5060853;28;20040;-70
2021/04/27 10:20:13;;;;;;;16.13;12.50;;;;;;;12.92;80.96;99797.94;5059768;28;20049;-67
2021/04/27 10:22:42;;;;;;;13.10;11.48;;;;;;;12.79;79.25;99797.91;5059683;28;20437;-72
2021/04/27 10:25:25;;;;;;;16.52;12.65;;;;;;;12.95;78.74;99787.28;5059075;28;20368;-71
2021/04/27 10:28:07;;;;;;;11.57;10.27;;;;;;;12.99;79.27;99791.34;5058888;28;20494;-71
2021/04/27 10:30:41;;;;;;;13.18;11.52;;;;;;;12.79;80.65;99797.06;5064007;28;20052;-72
2021/04/27 10:33:11;;;;;;;11.52;10.38;;;;;;;12.88;79.28;99788.59;5058025;28;20084;-73
2021/04/27 10:35:44;;;;;;;12.25;10.98;;;;;;;12.82;78.93;99783.78;5070986;28;20128;-73
2021/04/27 10:38:13;;;;;;;15.07;11.70;;;;;;;12.71;79.77;99787.09;5072039;28;20736;-71
2021/04/27 10:41:01;;;;;;;12.68;11.50;;;;;;;12.74;80.10;99786.91;5060077;28;20056;-79
2021/04/27 10:43:27;;;;;;;10.50;9.50;;;;;;;12.68;79.82;99783.88;5072160;28;20048;-77
2021/04/27 10:45:55;;;;;;;12.52;11.32;;;;;;;12.88;79.15;99777.31;5066643;28;20098;-80
2021/04/27 10:48:37;;;;;;;13.70;12.38;;;;;;;12.99;78.00;99782.66;5058860;28;20076;-81
2021/04/27 10:51:20;;;;;;;11.20;10.13;;;;;;;13.08;78.31;99776.81;5059225;28;20052;-81
2021/04/27 10:54:10;;;;;;;11.90;10.73;;;;;;;13.05;78.80;99784.88;5066319;28;20044;-72
2021/04/27 10:56:45;;;;;;;17.17;13.48;;;;;;;12.85;80.36;99781.81;5066352;28;20049;-73
2021/04/27 10:59:20;;;;;;;12.15;10.20;;;;;;;12.96;79.46;99781.09;5057642;28;20076;-74
2021/04/27 11:01:47;;;;;;;12.35;11.15;;;;;;;12.93;79.61;99785.69;5064253;28;20331;-73
2021/04/27 11:04:45;;;;;;;11.60;10.43;;;;;;;12.95;78.89;99782.03;5067796;28;20558;-70
2021/04/27 11:07:23;;;;;;;17.48;11.18;;;;;;;13.13;78.56;99782.56;5071159;28;20048;-71
2021/04/27 11:10:04;;;;;;;12.00;10.75;;;;;;;13.14;78.76;99780.78;5062319;28;20072;-69
2021/04/27 11:12:44;;;;;;;10.50;9.27;;;;;;;13.10;78.40;99773.16;5057512;28;20033;-71
2021/04/27 11:15:13;;;;;;;14.20;11.52;;;;;;;13.22;78.58;99768.06;5061200;28;20052;-73
2021/04/27 11:18:07;;;;;;;13.02;9.82;;;;;;;13.26;78.87;99770.38;5065593;28;20467;-74
2021/04/27 11:20:53;;;;;;;10.73;9.68;;;;;;;13.29;78.77;99766.69;5066676;28;20037;-73
2021/04/27 11:23:41;;;;;;;15.95;11.75;;;;;;;13.33;78.40;99768.16;5062626;28;20040;-73
2021/04/27 11:26:32;;;;;;;13.38;11.70;;;;;;;13.35;79.25;99766.25;5065370;28;20079;-72
2021/04/27 11:29:01;;;;;;;13.18;11.68;;;;;;;13.42;78.32;99761.44;5064833;28;20044;-73
2021/04/27 11:31:28;;;;;;;11.80;10.43;;;;;;;13.42;77.83;99764.88;5068559;28;20040;-71
2021/04/27 11:34:03;;;;;;;13.18;10.40;;;;;;;13.34;77.39;99760.19;5066926;28;20036;-72
2021/04/27 11:36:38;;;;;;;12.57;11.27;;;;;;;13.32;78.24;99756.00;5075127;28;20084;-71
2021/04/27 11:39:25;;;;;;;11.40;10.13;;;;;;;13.32;78.66;99764.69;5073526;28;20577;-69
2021/04/27 11:41:58;;;;;;;10.77;9.45;;;;;;;13.37;77.46;99764.38;5067455;28;20037;-70
2021/04/27 11:44:33;;;;;;;14.88;10.48;;;;;;;13.47;76.52;99761.94;5069354;28;20119;-69
2021/04/27 11:47:17;;;;;;;10.88;9.77;;;;;;;13.51;76.22;99766.03;5070138;28;20071;-69
2021/04/27 11:49:54;;;;;;;12.73;10.00;;;;;;;13.50;76.68;99762.56;5072962;28;20044;-69
2021/04/27 11:52:39;;;;;;;11.55;10.45;;;;;;;13.79;76.12;99770.16;5073034;28;20398;-71
2021/04/27 11:55:10;;;;;;;12.90;10.57;;;;;;;13.81;75.34;99763.03;5063792;28;20041;-70
2021/04/27 11:57:44;;;;;;;13.50;10.88;;;;;;;13.98;74.88;99762.69;5056742;28;20040;-71